createdAt,value
2019-03-29T00:00:56.622Z,7.61
2019-03-29T00:02:06.728Z,7.59
2019-03-29T00:03:16.654Z,7.55
2019-03-29T00:04:27.032Z,7.41
2019-03-29T00:05:36.839Z,7.36
2019-03-29T00:06:46.760Z,7.29
2019-03-29T00:07:56.682Z,7.29
2019-03-29T00:09:07.081Z,7.31
2019-03-29T00:10:16.757Z,7.26
2019-03-29T00:11:26.776Z,7.26
2019-03-29T00:12:36.697Z,7.29
2019-03-29T00:13:46.666Z,7.32
2019-03-29T00:14:57.551Z,7.22
2019-03-29T00:16:07.490Z,7.32
2019-03-29T00:17:17.914Z,7.36
2019-03-29T00:18:27.986Z,7.44
2019-03-29T00:19:37.997Z,7.47
2019-03-29T00:20:48.869Z,7.58
2019-03-29T00:21:58.798Z,7.55
2019-03-29T00:23:10.201Z,7.62
2019-03-29T00:24:20.141Z,7.5
2019-03-29T00:25:30.102Z,7.48
2019-03-29T00:26:40.699Z,7.39
2019-03-29T00:27:50.616Z,7.4
2019-03-29T00:29:00.591Z,7.4
2019-03-29T00:30:10.956Z,7.28
2019-03-29T00:31:20.877Z,7.28
2019-03-29T00:32:31.228Z,7.22
2019-03-29T00:33:41.748Z,7.23
2019-03-29T00:34:51.666Z,7.31
2019-03-29T00:36:02.329Z,7.26
2019-03-29T00:37:12.256Z,7.4
2019-03-29T00:38:23.197Z,7.43
2019-03-29T00:39:33.170Z,7.43
2019-03-29T00:40:43.215Z,7.41
2019-03-29T00:41:53.372Z,7.41
2019-03-29T00:43:03.313Z,7.47
2019-03-29T00:44:14.230Z,7.41
2019-03-29T00:45:24.167Z,7.64
2019-03-29T00:46:34.200Z,7.58
2019-03-29T00:47:45.362Z,7.62
2019-03-29T00:48:55.282Z,7.59
2019-03-29T00:50:05.326Z,7.56
2019-03-29T00:51:15.289Z,7.56
2019-03-29T00:52:25.218Z,7.56
2019-03-29T00:53:35.230Z,7.64
2019-03-29T00:54:45.796Z,7.56
2019-03-29T00:55:55.466Z,7.59
2019-03-29T00:57:05.387Z,7.67
2019-03-29T00:58:15.312Z,7.64
2019-03-29T00:59:25.247Z,7.62
2019-03-29T01:00:36.451Z,7.64
2019-03-29T01:01:46.385Z,7.56
2019-03-29T01:02:56.305Z,7.58
2019-03-29T01:04:07.819Z,7.7
2019-03-29T01:05:17.746Z,7.62
2019-03-29T01:06:28.486Z,7.74
2019-03-29T01:07:38.416Z,7.77
2019-03-29T01:08:48.349Z,7.75
2019-03-29T01:09:59.237Z,7.75
2019-03-29T01:11:09.167Z,7.72
2019-03-29T01:12:20.033Z,7.7
2019-03-29T01:13:29.975Z,7.72
2019-03-29T01:14:39.925Z,7.64
2019-03-29T01:15:50.668Z,7.59
2019-03-29T01:17:00.587Z,7.67
2019-03-29T01:18:11.224Z,7.64
2019-03-29T01:19:21.808Z,7.67
2019-03-29T01:20:31.726Z,7.66
2019-03-29T01:21:42.377Z,7.69
2019-03-29T01:22:52.319Z,7.75
2019-03-29T01:24:03.068Z,7.69
2019-03-29T01:25:13.446Z,7.62
2019-03-29T01:26:23.369Z,7.67
2019-03-29T01:27:34.662Z,7.72
2019-03-29T01:28:44.588Z,7.72
2019-03-29T01:29:54.507Z,7.7
2019-03-29T01:31:04.679Z,7.7
2019-03-29T01:32:14.601Z,7.66
2019-03-29T01:33:25.035Z,7.64
2019-03-29T01:34:35.195Z,7.66
2019-03-29T01:35:44.877Z,7.53
2019-03-29T01:36:56.176Z,7.64
2019-03-29T01:38:06.100Z,7.66
2019-03-29T01:39:29.867Z,7.66
2019-03-29T01:40:40.112Z,7.69
2019-03-29T01:41:50.038Z,7.74
2019-03-29T01:43:00.854Z,7.66
2019-03-29T01:44:10.782Z,7.67
2019-03-29T01:45:20.722Z,7.69
2019-03-29T01:46:30.640Z,7.67
2019-03-29T01:47:40.586Z,7.64
2019-03-29T01:48:51.406Z,7.74
2019-03-29T01:50:01.424Z,7.66
2019-03-29T01:51:11.387Z,7.61
2019-03-29T01:52:22.368Z,7.7
2019-03-29T01:53:32.313Z,7.64
2019-03-29T01:54:43.110Z,7.7
2019-03-29T01:55:53.684Z,7.67
2019-03-29T01:57:03.612Z,7.77
2019-03-29T01:58:14.481Z,7.75
2019-03-29T01:59:24.403Z,7.72
2019-03-29T02:00:34.336Z,7.74
2019-03-29T02:01:44.377Z,7.75
2019-03-29T02:02:54.298Z,7.8
2019-03-29T02:04:05.894Z,7.8
2019-03-29T02:05:16.143Z,7.66
2019-03-29T02:06:26.082Z,7.74
2019-03-29T02:07:36.102Z,7.84
2019-03-29T02:08:46.051Z,7.78
2019-03-29T02:09:56.821Z,7.83
2019-03-29T02:11:06.825Z,7.81
2019-03-29T02:12:16.747Z,7.7
2019-03-29T02:13:26.513Z,7.74
2019-03-29T02:14:36.450Z,7.72
2019-03-29T02:15:46.365Z,7.66
2019-03-29T02:16:56.310Z,7.61
2019-03-29T02:18:06.266Z,7.64
2019-03-29T02:19:16.198Z,7.64
2019-03-29T02:20:26.314Z,7.61
2019-03-29T02:21:36.000Z,7.59
2019-03-29T02:22:45.928Z,7.7
2019-03-29T02:23:56.929Z,7.66
2019-03-29T02:25:07.022Z,7.64
2019-03-29T02:26:16.689Z,7.66
2019-03-29T02:27:27.185Z,7.66
2019-03-29T02:28:37.175Z,7.64
2019-03-29T02:29:47.129Z,7.67
2019-03-29T02:30:57.112Z,7.8
2019-03-29T02:32:07.699Z,7.74
2019-03-29T02:33:17.649Z,7.77
2019-03-29T02:34:28.704Z,7.83
2019-03-29T02:35:40.979Z,7.83
2019-03-29T02:36:50.926Z,7.69
2019-03-29T02:38:01.728Z,7.78
2019-03-29T02:39:11.665Z,7.74
2019-03-29T02:40:22.598Z,7.74
2019-03-29T02:41:32.748Z,7.74
2019-03-29T02:42:43.329Z,7.7
2019-03-29T02:43:53.333Z,7.74
2019-03-29T02:45:05.829Z,7.75
2019-03-29T02:46:15.798Z,7.77
2019-03-29T02:47:26.706Z,7.77
2019-03-29T02:48:36.736Z,7.8
2019-03-29T02:49:46.670Z,7.7
2019-03-29T02:50:56.436Z,7.7
2019-03-29T02:52:06.448Z,7.69
2019-03-29T02:53:16.388Z,7.66
2019-03-29T02:54:26.317Z,7.69
2019-03-29T02:55:36.261Z,7.7
2019-03-29T02:56:46.209Z,7.67
2019-03-29T02:57:56.166Z,7.69
2019-03-29T02:59:06.223Z,7.62
2019-03-29T03:00:15.901Z,7.67
2019-03-29T03:01:25.581Z,7.64
2019-03-29T03:02:35.557Z,7.62
2019-03-29T03:03:45.549Z,7.64
2019-03-29T03:04:55.486Z,7.62
2019-03-29T03:06:05.869Z,7.61
2019-03-29T03:07:15.573Z,7.67
2019-03-29T03:08:25.528Z,7.78
2019-03-29T03:09:40.372Z,7.85
2019-03-29T03:10:50.080Z,7.83
2019-03-29T03:12:00.125Z,7.84
2019-03-29T03:13:09.820Z,7.85
2019-03-29T03:14:19.919Z,7.9
2019-03-29T03:15:29.873Z,7.74
2019-03-29T03:16:39.804Z,7.9
2019-03-29T03:17:49.765Z,7.91
2019-03-29T03:18:59.720Z,7.91
2019-03-29T03:20:14.374Z,7.93
2019-03-29T03:21:24.563Z,7.9
2019-03-29T03:22:34.273Z,7.96
2019-03-29T03:23:44.307Z,7.95
2019-03-29T03:24:54.296Z,7.95
2019-03-29T03:26:04.328Z,7.98
2019-03-29T03:27:14.268Z,7.93
2019-03-29T03:28:24.246Z,7.95
2019-03-29T03:29:34.292Z,7.93
2019-03-29T03:30:44.285Z,7.75
2019-03-29T03:31:54.333Z,7.78
2019-03-29T03:33:04.404Z,7.85
2019-03-29T03:34:14.409Z,7.88
2019-03-29T03:35:24.707Z,7.95
2019-03-29T03:36:34.689Z,7.93
2019-03-29T03:37:44.740Z,7.95
2019-03-29T03:38:54.683Z,8.02
2019-03-29T03:40:04.617Z,8.08
2019-03-29T03:41:14.663Z,8.13
2019-03-29T03:42:24.614Z,8.14
2019-03-29T03:43:34.559Z,8.11
2019-03-29T03:44:44.509Z,8.11
2019-03-29T03:45:54.459Z,8.09
2019-03-29T03:47:04.498Z,8.2
2019-03-29T03:48:14.525Z,8.18
2019-03-29T03:49:24.217Z,8.2
2019-03-29T03:50:34.156Z,8.2
2019-03-29T03:51:44.170Z,8.23
2019-03-29T03:52:54.235Z,8.17
2019-03-29T03:54:04.200Z,8.2
2019-03-29T03:55:14.270Z,8.14
2019-03-29T03:56:24.210Z,8.17
2019-03-29T03:57:34.142Z,8.06
2019-03-29T03:58:44.238Z,8.13
2019-03-29T03:59:54.247Z,8.01
2019-03-29T04:01:04.204Z,8.05
2019-03-29T04:02:14.144Z,8.05
2019-03-29T04:03:24.118Z,8.05
2019-03-29T04:04:37.423Z,8.06
2019-03-29T04:05:47.744Z,8.01
2019-03-29T04:06:57.446Z,7.98
2019-03-29T04:08:07.405Z,8.06
2019-03-29T04:09:17.356Z,8.02
2019-03-29T04:10:27.299Z,8.08
2019-03-29T04:11:37.010Z,7.99
2019-03-29T04:12:46.953Z,8.14
2019-03-29T04:13:56.637Z,8.13
2019-03-29T04:15:06.584Z,8.21
2019-03-29T04:16:16.614Z,8.2
2019-03-29T04:17:26.606Z,8.23
2019-03-29T04:18:36.599Z,8.2
2019-03-29T04:19:46.544Z,8.18
2019-03-29T04:20:56.495Z,8.2
2019-03-29T04:22:06.633Z,8.09
2019-03-29T04:23:16.685Z,8.09
2019-03-29T04:24:26.666Z,8.06
2019-03-29T04:25:36.597Z,8.11
2019-03-29T04:26:46.567Z,8.16
2019-03-29T04:27:56.250Z,8.23
2019-03-29T04:29:09.940Z,8.08
2019-03-29T04:30:19.643Z,8.2
2019-03-29T04:31:29.577Z,8.21
2019-03-29T04:32:39.294Z,8.28
2019-03-29T04:33:49.335Z,8.2
2019-03-29T04:34:59.276Z,8.18
2019-03-29T04:36:09.304Z,8.21
2019-03-29T04:37:19.233Z,8.18
2019-03-29T04:38:29.160Z,8.13
2019-03-29T04:39:39.191Z,8.13
2019-03-29T04:40:49.128Z,8.13
2019-03-29T04:41:59.085Z,8.06
2019-03-29T04:43:09.044Z,8.14
2019-03-29T04:44:18.983Z,8.05
2019-03-29T04:45:29.016Z,8.09
2019-03-29T04:46:38.951Z,8.02
2019-03-29T04:47:48.876Z,8.01
2019-03-29T04:48:58.810Z,7.93
2019-03-29T04:50:08.776Z,8.01
2019-03-29T04:51:18.827Z,8.03
2019-03-29T04:52:28.530Z,8.09
2019-03-29T04:53:38.458Z,8.03
2019-03-29T04:54:48.377Z,8.01
2019-03-29T04:55:58.302Z,7.96
2019-03-29T04:57:08.226Z,7.98
2019-03-29T04:58:18.143Z,8.03
2019-03-29T04:59:28.064Z,7.98
2019-03-29T05:00:37.985Z,8.05
2019-03-29T05:01:47.921Z,8.01
2019-03-29T05:02:57.845Z,8.01
2019-03-29T05:04:07.772Z,7.98
2019-03-29T05:05:17.697Z,8.06
2019-03-29T05:06:27.645Z,8.05
2019-03-29T05:07:39.525Z,8.03
2019-03-29T05:08:49.581Z,8.05
2019-03-29T05:09:59.506Z,8.14
2019-03-29T05:11:09.552Z,8.2
2019-03-29T05:12:19.483Z,8.13
2019-03-29T05:13:29.412Z,8.11
2019-03-29T05:14:39.342Z,8.11
2019-03-29T05:15:49.274Z,8.06
2019-03-29T05:16:59.195Z,8.02
2019-03-29T05:18:09.120Z,7.98
2019-03-29T05:19:19.045Z,7.95
2019-03-29T05:20:29.066Z,7.98
2019-03-29T05:21:38.992Z,8.09
2019-03-29T05:22:48.921Z,8.02
2019-03-29T05:23:58.854Z,8.02
2019-03-29T05:25:08.779Z,7.93
2019-03-29T05:26:18.806Z,7.98
2019-03-29T05:27:30.738Z,7.93
2019-03-29T05:28:40.661Z,7.93
2019-03-29T05:29:50.585Z,7.9
2019-03-29T05:31:00.514Z,7.95
2019-03-29T05:32:10.434Z,7.98
2019-03-29T05:33:20.356Z,7.98
2019-03-29T05:34:30.393Z,7.91
2019-03-29T05:35:40.355Z,7.95
2019-03-29T05:36:50.301Z,7.98
2019-03-29T05:38:03.748Z,7.98
2019-03-29T05:39:13.679Z,7.91
2019-03-29T05:40:36.751Z,7.98
2019-03-29T05:41:46.705Z,7.96
2019-03-29T05:42:56.628Z,7.93
2019-03-29T05:44:06.651Z,7.93
2019-03-29T05:45:16.572Z,7.91
2019-03-29T05:46:26.615Z,7.91
2019-03-29T05:47:36.544Z,7.84
2019-03-29T05:48:46.572Z,7.98
2019-03-29T05:49:56.491Z,7.96
2019-03-29T05:51:06.168Z,7.87
2019-03-29T05:52:16.095Z,7.88
2019-03-29T05:53:25.764Z,7.98
2019-03-29T05:54:35.793Z,7.9
2019-03-29T05:55:48.266Z,8.02
2019-03-29T05:56:58.365Z,7.98
2019-03-29T05:58:08.292Z,8.03
2019-03-29T05:59:18.217Z,8.11
2019-03-29T06:00:28.246Z,8.02
2019-03-29T06:01:38.181Z,8.05
2019-03-29T06:02:48.108Z,8.05
2019-03-29T06:03:58.031Z,8.09
2019-03-29T06:05:07.962Z,8.18
2019-03-29T06:06:17.899Z,8.03
2019-03-29T06:07:27.821Z,7.96
2019-03-29T06:08:37.744Z,8.03
2019-03-29T06:09:47.682Z,8.05
2019-03-29T06:10:57.605Z,8.08
2019-03-29T06:12:07.634Z,8.18
2019-03-29T06:13:17.559Z,8.16
2019-03-29T06:14:27.489Z,8.18
2019-03-29T06:15:37.414Z,8.18
2019-03-29T06:16:47.342Z,8.16
2019-03-29T06:17:57.317Z,8.13
2019-03-29T06:19:07.237Z,8.18
2019-03-29T06:20:17.162Z,8.17
2019-03-29T06:21:27.115Z,8.23
2019-03-29T06:22:37.050Z,8.18
2019-03-29T06:23:47.071Z,8.2
2019-03-29T06:24:57.006Z,8.2
2019-03-29T06:26:06.951Z,8.2
2019-03-29T06:27:16.902Z,8.23
2019-03-29T06:28:29.823Z,8.11
2019-03-29T06:29:39.883Z,8.24
2019-03-29T06:30:49.809Z,8.24
2019-03-29T06:31:59.728Z,8.2
2019-03-29T06:33:09.649Z,8.2
2019-03-29T06:34:19.574Z,8.2
2019-03-29T06:35:29.561Z,8.17
2019-03-29T06:36:39.491Z,8.16
2019-03-29T06:37:49.418Z,8.18
2019-03-29T06:38:59.346Z,8.2
2019-03-29T06:40:09.355Z,8.32
2019-03-29T06:41:19.398Z,8.24
2019-03-29T06:42:29.354Z,8.18
2019-03-29T06:43:39.279Z,8.27
2019-03-29T06:44:49.361Z,8.26
2019-03-29T06:45:59.288Z,8.26
2019-03-29T06:47:09.276Z,8.32
2019-03-29T06:48:19.204Z,8.34
2019-03-29T06:49:29.142Z,8.39
2019-03-29T06:50:38.908Z,8.38
2019-03-29T06:51:49.041Z,8.44
2019-03-29T06:52:59.018Z,8.53
2019-03-29T06:54:08.968Z,8.35
2019-03-29T06:55:18.898Z,8.38
2019-03-29T06:56:28.891Z,8.39
2019-03-29T06:57:38.854Z,8.44
2019-03-29T06:58:48.778Z,8.42
2019-03-29T06:59:58.699Z,8.46
2019-03-29T07:01:08.368Z,8.49
2019-03-29T07:02:18.035Z,8.42
2019-03-29T07:03:27.959Z,8.44
2019-03-29T07:04:37.988Z,8.38
2019-03-29T07:05:48.003Z,8.36
2019-03-29T07:06:57.932Z,8.31
2019-03-29T07:08:07.858Z,8.35
2019-03-29T07:09:17.794Z,8.44
2019-03-29T07:10:27.823Z,8.39
2019-03-29T07:11:39.594Z,8.36
2019-03-29T07:12:49.689Z,8.34
2019-03-29T07:14:02.969Z,8.39
2019-03-29T07:15:12.896Z,8.36
2019-03-29T07:16:22.820Z,8.39
2019-03-29T07:17:32.755Z,8.39
2019-03-29T07:18:42.688Z,8.41
2019-03-29T07:19:52.617Z,8.34
2019-03-29T07:21:02.540Z,8.44
2019-03-29T07:22:25.764Z,8.44
2019-03-29T07:23:35.690Z,8.46
2019-03-29T07:24:45.635Z,8.42
2019-03-29T07:25:58.753Z,8.45
2019-03-29T07:27:08.685Z,8.41
2019-03-29T07:28:18.800Z,8.42
2019-03-29T07:29:28.511Z,8.61
2019-03-29T07:30:38.441Z,8.57
2019-03-29T07:31:48.116Z,8.54
2019-03-29T07:33:00.845Z,8.54
2019-03-29T07:34:10.873Z,8.56
2019-03-29T07:35:20.819Z,8.54
2019-03-29T07:36:30.743Z,8.63
2019-03-29T07:37:40.667Z,8.68
2019-03-29T07:38:50.608Z,8.57
2019-03-29T07:40:00.416Z,8.63
2019-03-29T07:41:10.347Z,8.54
2019-03-29T07:42:20.319Z,8.59
2019-03-29T07:43:30.247Z,8.57
2019-03-29T07:44:40.255Z,8.52
2019-03-29T07:45:50.233Z,8.54
2019-03-29T07:47:00.165Z,8.66
2019-03-29T07:48:10.094Z,8.66
2019-03-29T07:49:20.024Z,8.71
2019-03-29T07:50:29.960Z,8.72
2019-03-29T07:51:39.906Z,8.72
2019-03-29T07:52:49.830Z,8.75
2019-03-29T07:53:59.782Z,8.75
2019-03-29T07:55:09.544Z,8.78
2019-03-29T07:56:19.475Z,8.66
2019-03-29T07:57:29.400Z,8.86
2019-03-29T07:58:39.079Z,8.84
2019-03-29T07:59:49.855Z,8.86
2019-03-29T08:01:00.435Z,8.82
2019-03-29T08:02:10.363Z,8.89
2019-03-29T08:03:23.843Z,8.86
2019-03-29T08:04:33.824Z,8.81
2019-03-29T08:05:45.065Z,8.81
2019-03-29T08:06:55.133Z,8.89
2019-03-29T08:08:05.093Z,8.9
2019-03-29T08:09:29.666Z,8.84
2019-03-29T08:10:40.592Z,8.95
2019-03-29T08:11:51.613Z,8.99
2019-03-29T08:13:02.932Z,8.96
2019-03-29T08:14:14.895Z,9
2019-03-29T08:15:24.919Z,9.02
2019-03-29T08:16:35.017Z,9.11
2019-03-29T08:17:44.987Z,9.12
2019-03-29T08:18:54.940Z,9.05
2019-03-29T08:20:46.252Z,9.16
2019-03-29T08:21:57.777Z,9.11
2019-03-29T08:23:07.967Z,9.15
2019-03-29T08:24:17.891Z,9.16
2019-03-29T08:25:27.815Z,9.16
2019-03-29T08:26:37.798Z,9.3
2019-03-29T08:27:47.736Z,9.36
2019-03-29T08:28:57.413Z,9.29
2019-03-29T08:30:07.351Z,9.37
2019-03-29T08:31:17.308Z,9.3
2019-03-29T08:32:26.993Z,9.4
2019-03-29T08:33:36.921Z,9.47
2019-03-29T08:34:46.853Z,9.44
2019-03-29T08:35:56.784Z,9.48
2019-03-29T08:37:06.715Z,9.49
2019-03-29T08:38:16.714Z,9.52
2019-03-29T08:39:32.954Z,9.47
2019-03-29T08:40:45.161Z,9.4
2019-03-29T08:42:05.075Z,9.54
2019-03-29T08:43:15.105Z,9.55
2019-03-29T08:44:25.051Z,9.55
2019-03-29T08:45:34.982Z,9.63
2019-03-29T08:46:44.940Z,9.56
2019-03-29T08:47:54.912Z,9.64
2019-03-29T08:49:04.850Z,9.54
2019-03-29T08:50:14.885Z,9.63
2019-03-29T08:51:24.610Z,9.64
2019-03-29T08:52:34.543Z,9.66
2019-03-29T08:53:44.474Z,9.63
2019-03-29T08:54:56.183Z,9.67
2019-03-29T08:56:06.232Z,9.64
2019-03-29T08:57:16.171Z,9.82
2019-03-29T08:58:26.105Z,9.82
2019-03-29T08:59:36.035Z,9.77
2019-03-29T09:00:45.962Z,9.81
2019-03-29T09:01:55.894Z,9.73
2019-03-29T09:03:05.863Z,9.72
2019-03-29T09:04:15.802Z,9.8
2019-03-29T09:05:29.230Z,9.73
2019-03-29T09:06:52.373Z,9.69
2019-03-29T09:08:03.109Z,9.66
2019-03-29T09:09:14.630Z,9.76
2019-03-29T09:10:24.613Z,9.82
2019-03-29T09:11:34.641Z,9.59
2019-03-29T09:12:46.609Z,9.66
2019-03-29T09:13:56.606Z,9.66
2019-03-29T09:15:08.782Z,9.64
2019-03-29T09:16:18.755Z,9.66
2019-03-29T09:17:28.808Z,9.64
2019-03-29T09:18:38.758Z,9.51
2019-03-29T09:19:48.690Z,9.72
2019-03-29T09:20:58.614Z,9.8
2019-03-29T09:22:08.572Z,9.82
2019-03-29T09:23:18.509Z,9.81
2019-03-29T09:24:28.193Z,9.84
2019-03-29T09:25:40.412Z,9.8
2019-03-29T09:26:50.495Z,9.85
2019-03-29T09:28:00.440Z,9.91
2019-03-29T09:29:10.424Z,9.85
2019-03-29T09:30:20.378Z,9.84
2019-03-29T09:31:30.324Z,9.88
2019-03-29T09:32:40.255Z,9.91
2019-03-29T09:33:50.198Z,9.87
2019-03-29T09:35:03.724Z,9.92
2019-03-29T09:36:13.656Z,9.92
2019-03-29T09:37:23.664Z,9.92
2019-03-29T09:38:33.590Z,10.1
2019-03-29T09:39:43.519Z,10.1
2019-03-29T09:41:03.487Z,10.03
2019-03-29T09:42:27.660Z,10.07
2019-03-29T09:43:38.453Z,10.03
2019-03-29T09:44:48.379Z,10.12
2019-03-29T09:45:58.368Z,10.09
2019-03-29T09:47:10.745Z,10.1
2019-03-29T09:48:20.681Z,10.13
2019-03-29T09:49:30.611Z,10.1
2019-03-29T09:50:40.563Z,10.15
2019-03-29T09:51:56.430Z,10.1
2019-03-29T09:53:06.631Z,10.15
2019-03-29T09:54:20.015Z,10.15
2019-03-29T09:55:30.081Z,10.23
2019-03-29T09:56:44.169Z,10.23
2019-03-29T09:57:55.989Z,10.12
2019-03-29T09:59:05.939Z,10.17
2019-03-29T10:00:27.564Z,10.15
2019-03-29T10:01:37.901Z,10.2
2019-03-29T10:02:47.856Z,10.25
2019-03-29T10:03:58.062Z,10.2
2019-03-29T10:05:07.993Z,10.3
2019-03-29T10:06:20.157Z,10.25
2019-03-29T10:07:30.096Z,10.36
2019-03-29T10:08:40.129Z,10.39
2019-03-29T10:09:50.057Z,10.38
2019-03-29T10:11:00.001Z,10.34
2019-03-29T10:12:09.930Z,10.27
2019-03-29T10:13:19.857Z,10.24
2019-03-29T10:14:33.061Z,10.24
2019-03-29T10:15:43.367Z,10.15
2019-03-29T10:16:56.464Z,10.18
2019-03-29T10:18:06.412Z,10.13
2019-03-29T10:19:16.361Z,10.18
2019-03-29T10:20:26.338Z,10.09
2019-03-29T10:21:38.987Z,10.12
2019-03-29T10:22:48.987Z,10.24
2019-03-29T10:23:58.939Z,10.33
2019-03-29T10:25:23.101Z,10.33
2019-03-29T10:26:33.022Z,10.28
2019-03-29T10:27:43.036Z,10.39
2019-03-29T10:28:52.968Z,10.43
2019-03-29T10:30:02.781Z,10.39
2019-03-29T10:31:12.711Z,10.45
2019-03-29T10:32:36.472Z,10.59
2019-03-29T10:33:48.812Z,10.69
2019-03-29T10:34:59.026Z,10.75
2019-03-29T10:36:09.011Z,10.79
2019-03-29T10:37:18.945Z,10.86
2019-03-29T10:38:28.945Z,10.84
2019-03-29T10:39:40.638Z,11.02
2019-03-29T10:40:50.575Z,11.04
2019-03-29T10:42:00.507Z,11.02
2019-03-29T10:43:10.446Z,11.12
2019-03-29T10:44:20.371Z,11.07
2019-03-29T10:45:30.323Z,11.13
2019-03-29T10:46:47.084Z,11.08
2019-03-29T10:47:57.116Z,11.22
2019-03-29T10:49:07.186Z,11.31
2019-03-29T10:50:17.120Z,11.26
2019-03-29T10:51:27.068Z,11.38
2019-03-29T10:52:37.003Z,11.6
2019-03-29T10:53:46.979Z,11.67
2019-03-29T10:54:56.947Z,11.68
2019-03-29T10:56:06.888Z,11.78
2019-03-29T10:57:16.845Z,11.88
2019-03-29T10:58:26.785Z,11.93
2019-03-29T10:59:36.470Z,12.15
2019-03-29T11:00:46.393Z,12.25
2019-03-29T11:01:56.376Z,12.33
2019-03-29T11:03:06.341Z,12.4
2019-03-29T11:04:16.281Z,12.48
2019-03-29T11:05:26.212Z,12.51
2019-03-29T11:06:36.163Z,12.57
2019-03-29T11:07:46.140Z,12.55
2019-03-29T11:08:56.066Z,12.61
2019-03-29T11:10:06.048Z,12.72
2019-03-29T11:11:16.090Z,12.91
2019-03-29T11:12:26.017Z,13.01
2019-03-29T11:13:35.946Z,13.17
2019-03-29T11:14:48.738Z,13.67
2019-03-29T11:15:58.667Z,13.95
2019-03-29T11:17:08.600Z,14.16
2019-03-29T11:18:18.547Z,14.36
2019-03-29T11:19:28.486Z,14.62
2019-03-29T11:20:38.421Z,14.86
2019-03-29T11:21:48.352Z,15.1
2019-03-29T11:22:58.034Z,15.22
2019-03-29T11:24:11.548Z,15.5
2019-03-29T11:25:21.487Z,15.63
2019-03-29T11:26:31.424Z,15.8
2019-03-29T11:27:41.361Z,16.02
2019-03-29T11:28:51.345Z,16.06
2019-03-29T11:30:01.294Z,16.18
2019-03-29T11:31:11.238Z,16.31
2019-03-29T11:32:21.170Z,16.39
2019-03-29T11:33:31.103Z,16.24
2019-03-29T11:34:41.049Z,15.96
2019-03-29T11:35:50.996Z,15.96
2019-03-29T11:37:00.932Z,15.99
2019-03-29T11:38:10.619Z,15.92
2019-03-29T11:39:20.300Z,16
2019-03-29T11:40:32.783Z,15.98
2019-03-29T11:41:42.744Z,15.85
2019-03-29T11:42:52.678Z,15.83
2019-03-29T11:44:02.692Z,15.83
2019-03-29T11:45:12.627Z,15.69
2019-03-29T11:46:22.620Z,15.8
2019-03-29T11:47:32.552Z,15.8
2019-03-29T11:48:42.494Z,15.76
2019-03-29T11:49:55.356Z,15.9
2019-03-29T11:51:18.539Z,15.85
2019-03-29T11:52:29.172Z,15.99
2019-03-29T11:53:41.537Z,16.06
2019-03-29T11:54:51.223Z,16.05
2019-03-29T11:56:01.172Z,16.02
2019-03-29T11:57:11.135Z,15.98
2019-03-29T11:58:21.073Z,16.05
2019-03-29T11:59:31.026Z,16.16
2019-03-29T12:00:41.004Z,16.13
2019-03-29T12:01:50.941Z,16.17
2019-03-29T12:03:00.979Z,16.28
2019-03-29T12:04:14.287Z,16.18
2019-03-29T12:05:24.232Z,16.43
2019-03-29T12:06:34.182Z,16.58
2019-03-29T12:07:44.119Z,16.72
2019-03-29T12:08:56.978Z,16.77
2019-03-29T12:10:07.071Z,16.83
2019-03-29T12:11:17.028Z,16.89
2019-03-29T12:12:30.040Z,16.83
2019-03-29T12:13:46.251Z,16.87
2019-03-29T12:14:56.217Z,16.99
2019-03-29T12:16:06.154Z,17.07
2019-03-29T12:17:16.099Z,16.89
2019-03-29T12:18:26.047Z,16.83
2019-03-29T12:19:36.034Z,16.83
2019-03-29T12:20:45.978Z,16.83
2019-03-29T12:21:59.329Z,16.74
2019-03-29T12:23:09.271Z,16.64
2019-03-29T12:24:19.212Z,16.65
2019-03-29T12:25:29.148Z,16.79
2019-03-29T12:26:39.196Z,16.54
2019-03-29T12:27:49.129Z,16.46
2019-03-29T12:28:59.064Z,16.62
2019-03-29T12:30:09.004Z,16.55
2019-03-29T12:31:35.871Z,16.61
2019-03-29T12:32:45.809Z,16.64
2019-03-29T12:33:55.752Z,16.69
2019-03-29T12:35:05.809Z,16.69
2019-03-29T12:36:17.776Z,16.82
2019-03-29T12:37:27.770Z,16.73
2019-03-29T12:38:37.707Z,16.95
2019-03-29T12:39:47.676Z,17.19
2019-03-29T12:40:57.622Z,17.35
2019-03-29T12:42:07.573Z,17.42
2019-03-29T12:43:17.803Z,17.19
2019-03-29T12:44:27.741Z,17.07
2019-03-29T12:45:37.686Z,17.01
2019-03-29T12:46:47.630Z,17.01
2019-03-29T12:47:57.587Z,17.14
2019-03-29T12:49:07.528Z,17.09
2019-03-29T12:50:17.466Z,17.17
2019-03-29T12:51:27.406Z,17.34
2019-03-29T12:52:37.352Z,17.37
2019-03-29T12:53:47.053Z,17.35
2019-03-29T12:54:57.045Z,17.49
2019-03-29T12:56:06.988Z,17.78
2019-03-29T12:57:16.930Z,18.03
2019-03-29T12:58:26.941Z,17.97
2019-03-29T12:59:37.936Z,17.9
2019-03-29T13:00:47.874Z,17.8
2019-03-29T13:01:57.846Z,17.5
2019-03-29T13:03:07.561Z,17.46
2019-03-29T13:04:17.511Z,17.35
2019-03-29T13:05:27.496Z,17.17
2019-03-29T13:06:37.495Z,17.35
2019-03-29T13:07:47.432Z,17.44
2019-03-29T13:09:00.706Z,17.78
2019-03-29T13:10:10.643Z,17.78
2019-03-29T13:11:20.664Z,17.41
2019-03-29T13:12:30.672Z,17.23
2019-03-29T13:13:40.651Z,17.22
2019-03-29T13:14:50.608Z,17.23
2019-03-29T13:16:00.573Z,17.32
2019-03-29T13:17:10.526Z,17.19
2019-03-29T13:18:20.359Z,17.09
2019-03-29T13:19:30.299Z,17.12
2019-03-29T13:20:40.242Z,17.07
2019-03-29T13:21:50.181Z,17.1
2019-03-29T13:23:00.175Z,16.94
2019-03-29T13:24:09.950Z,17.01
2019-03-29T13:25:23.510Z,16.87
2019-03-29T13:26:33.446Z,16.87
2019-03-29T13:27:43.385Z,16.82
2019-03-29T13:28:53.324Z,16.73
2019-03-29T13:30:03.066Z,16.5
2019-03-29T13:31:13.021Z,16.49
2019-03-29T13:32:22.990Z,16.37
2019-03-29T13:33:32.938Z,16.31
2019-03-29T13:34:42.646Z,15.92
2019-03-29T13:35:56.276Z,15.83
2019-03-29T13:37:06.219Z,15.66
2019-03-29T13:38:16.155Z,15.8
2019-03-29T13:39:28.228Z,15.67
2019-03-29T13:40:38.177Z,15.54
2019-03-29T13:41:48.206Z,15.48
2019-03-29T13:42:58.150Z,15.7
2019-03-29T13:44:08.093Z,15.78
2019-03-29T13:45:33.638Z,15.87
2019-03-29T13:46:43.578Z,15.87
2019-03-29T13:47:53.574Z,15.76
2019-03-29T13:49:03.514Z,15.52
2019-03-29T13:50:13.659Z,15.26
2019-03-29T13:51:23.593Z,15.32
2019-03-29T13:52:36.076Z,15.3
2019-03-29T13:53:46.027Z,15.29
2019-03-29T13:54:55.963Z,15.04
2019-03-29T13:56:05.994Z,14.89
2019-03-29T13:57:15.937Z,14.71
2019-03-29T13:58:25.869Z,14.59
2019-03-29T13:59:36.603Z,14.58
2019-03-29T14:00:46.536Z,14.52
2019-03-29T14:01:56.483Z,14.59
2019-03-29T14:03:06.418Z,14.53
2019-03-29T14:04:16.406Z,14.49
2019-03-29T14:05:26.334Z,14.43
2019-03-29T14:06:36.267Z,14.33
2019-03-29T14:07:46.207Z,14.28
2019-03-29T14:08:56.142Z,14.22
2019-03-29T14:10:06.077Z,14.13
2019-03-29T14:11:16.068Z,14.08
2019-03-29T14:12:26.023Z,14.26
2019-03-29T14:13:35.705Z,14.49
2019-03-29T14:14:45.655Z,14.7
2019-03-29T14:15:55.682Z,14.97
2019-03-29T14:17:05.633Z,15.25
2019-03-29T14:18:15.572Z,15.45
2019-03-29T14:19:28.280Z,15.47
2019-03-29T14:20:37.973Z,15.51
2019-03-29T14:21:47.955Z,15.47
2019-03-29T14:22:57.898Z,15.59
2019-03-29T14:24:07.584Z,15.63
2019-03-29T14:25:17.523Z,15.73
2019-03-29T14:26:27.529Z,15.63
2019-03-29T14:27:37.217Z,15.55
2019-03-29T14:28:47.146Z,15.72
2019-03-29T14:30:09.111Z,15.85
2019-03-29T14:31:19.053Z,15.94
2019-03-29T14:32:28.988Z,16.22
2019-03-29T14:33:38.930Z,16.4
2019-03-29T14:34:48.874Z,16.68
2019-03-29T14:35:58.811Z,16.94
2019-03-29T14:37:08.755Z,16.94
2019-03-29T14:38:18.744Z,16.91
2019-03-29T14:39:28.696Z,16.95
2019-03-29T14:40:38.629Z,17.04
2019-03-29T14:41:48.574Z,17.2
2019-03-29T14:42:58.513Z,17.53
2019-03-29T14:44:08.556Z,17.86
2019-03-29T14:45:18.491Z,17.82
2019-03-29T14:46:28.429Z,17.95
2019-03-29T14:47:47.797Z,18.03
2019-03-29T14:48:57.736Z,17.98
2019-03-29T14:50:07.814Z,17.84
2019-03-29T14:51:17.751Z,17.59
2019-03-29T14:52:27.724Z,17.46
2019-03-29T14:53:37.679Z,17.44
2019-03-29T14:54:47.612Z,17.22
2019-03-29T14:55:57.602Z,17.28
2019-03-29T14:57:10.324Z,17.34
2019-03-29T14:58:20.258Z,17.75
2019-03-29T14:59:30.198Z,17.86
2019-03-29T15:00:40.184Z,17.73
2019-03-29T15:01:53.550Z,17.86
2019-03-29T15:03:03.498Z,17.98
2019-03-29T15:04:13.207Z,18.19
2019-03-29T15:05:23.147Z,18.52
2019-03-29T15:06:33.081Z,18.42
2019-03-29T15:07:43.023Z,18.45
2019-03-29T15:08:54.693Z,18.66
2019-03-29T15:10:04.642Z,18.6
2019-03-29T15:11:26.876Z,18.66
2019-03-29T15:12:36.824Z,18.6
2019-03-29T15:13:46.816Z,18.73
2019-03-29T15:15:10.341Z,18.7
2019-03-29T15:16:20.291Z,18.6
2019-03-29T15:17:30.267Z,18.52
2019-03-29T15:18:40.311Z,18.45
2019-03-29T15:19:50.254Z,18.45
2019-03-29T15:21:00.209Z,18.53
2019-03-29T15:22:10.161Z,18.83
2019-03-29T15:23:20.152Z,18.89
2019-03-29T15:24:30.089Z,18.79
2019-03-29T15:25:43.111Z,18.74
2019-03-29T15:26:53.145Z,19.08
2019-03-29T15:28:03.101Z,19.24
2019-03-29T15:29:13.046Z,19.11
2019-03-29T15:30:23.037Z,19.04
2019-03-29T15:31:32.977Z,19.08